Etihad Airways Virtual Airport Information Service

Tel Aviv Ben Gurion International Airport

ICAO: LLBG Country: Israel
Latitude: 32.0114 Longitude: 34.8867
Latest Arrival : ETDJUMP (OMDB-LLBG) Latest Departure : (-)


WX CaptureLIVE
Data provided by noaa.gov | Recorded at 07:29:58

METAR : LLBG 150650Z VRB02KT CAVOK 20/08 Q1016 NOSIG

TAF : LLBG 150502Z 1506/1606 VRB03KT CAVOK BECMG 1507/1510 33012KT BECMG 1517/1519 VRB04KT PROB30 1600/1605 4000 BR TX27/1511Z TN13/1603Z


Runway Data for LLBG
Data provided by openaviationdata.com

Runway ID Mag Var Hdg Length Elevation Surface ILS Freq ILS Id ILS Slope

Tel Aviv Ben Gurion International Airport, Israel
Use only for reference purposes